sensor_id;sensor_type;location;lat;lon;timestamp;pressure;altitude;pressure_sealevel;temperature;humidity
12182;BME280;6154;51.550;12.138;2023-05-16T00:38:24;100021.00;;;18.11;54.21
12182;BME280;6154;51.550;12.138;2023-05-16T00:40:54;100029.63;;;18.05;52.95
12182;BME280;6154;51.550;12.138;2023-05-16T00:43:49;100031.03;;;17.80;54.04
12182;BME280;6154;51.550;12.138;2023-05-16T00:46:47;100034.69;;;17.69;55.35
12182;BME280;6154;51.550;12.138;2023-05-16T00:49:17;100041.59;;;17.81;54.08
12182;BME280;6154;51.550;12.138;2023-05-16T00:51:53;100039.75;;;17.72;53.38
12182;BME280;6154;51.550;12.138;2023-05-16T00:54:25;100040.47;;;17.74;53.18
12182;BME280;6154;51.550;12.138;2023-05-16T00:57:15;100042.28;;;17.84;52.21
12182;BME280;6154;51.550;12.138;2023-05-16T01:00:46;100043.84;;;17.76;52.32
12182;BME280;6154;51.550;12.138;2023-05-16T01:07:25;100063.34;;;17.48;54.39
12182;BME280;6154;51.550;12.138;2023-05-16T01:18:36;100071.59;;;17.16;55.71
12182;BME280;6154;51.550;12.138;2023-05-16T01:21:12;100087.38;;;17.29;53.82
12182;BME280;6154;51.550;12.138;2023-05-16T01:24:02;100079.88;;;17.22;53.34
12182;BME280;6154;51.550;12.138;2023-05-16T01:34:06;100103.34;;;16.79;56.53
12182;BME280;6154;51.550;12.138;2023-05-16T01:36:41;100102.88;;;16.94;53.68
12182;BME280;6154;51.550;12.138;2023-05-16T01:39:16;100106.97;;;16.57;55.94
12182;BME280;6154;51.550;12.138;2023-05-16T01:41:53;100098.13;;;16.56;55.25
12182;BME280;6154;51.550;12.138;2023-05-16T01:44:24;100097.28;;;16.56;55.90
12182;BME280;6154;51.550;12.138;2023-05-16T01:47:00;100111.22;;;16.59;54.61
12182;BME280;6154;51.550;12.138;2023-05-16T01:53:02;100107.12;;;16.55;55.96
12182;BME280;6154;51.550;12.138;2023-05-16T01:55:51;100113.72;;;16.19;56.56
12182;BME280;6154;51.550;12.138;2023-05-16T01:58:22;100118.31;;;16.49;55.73
12182;BME280;6154;51.550;12.138;2023-05-16T02:00:52;100121.09;;;16.27;54.64
12182;BME280;6154;51.550;12.138;2023-05-16T02:03:31;100121.03;;;16.17;56.01
12182;BME280;6154;51.550;12.138;2023-05-16T02:09:29;100137.38;;;16.24;55.06
12182;BME280;6154;51.550;12.138;2023-05-16T02:11:58;100139.53;;;16.30;52.94
12182;BME280;6154;51.550;12.138;2023-05-16T02:17:32;100140.91;;;16.24;53.90
12182;BME280;6154;51.550;12.138;2023-05-16T02:20:01;100135.72;;;16.12;56.18
12182;BME280;6154;51.550;12.138;2023-05-16T02:22:33;100141.31;;;16.08;53.05
12182;BME280;6154;51.550;12.138;2023-05-16T02:25:16;100147.94;;;15.82;55.58
12182;BME280;6154;51.550;12.138;2023-05-16T02:28:04;100144.03;;;15.97;55.66
12182;BME280;6154;51.550;12.138;2023-05-16T02:30:32;100154.88;;;15.85;54.55
12182;BME280;6154;51.550;12.138;2023-05-16T02:33:17;100152.78;;;15.88;53.88
12182;BME280;6154;51.550;12.138;2023-05-16T02:35:46;100157.41;;;15.86;55.78
12182;BME280;6154;51.550;12.138;2023-05-16T02:48:02;100178.66;;;15.76;57.26
12182;BME280;6154;51.550;12.138;2023-05-16T02:53:43;100185.81;;;15.65;56.02
12182;BME280;6154;51.550;12.138;2023-05-16T02:56:47;100182.25;;;15.53;57.52
12182;BME280;6154;51.550;12.138;2023-05-16T03:02:02;100192.31;;;15.49;56.90
12182;BME280;6154;51.550;12.138;2023-05-16T03:04:33;100177.06;;;15.63;54.03
12182;BME280;6154;51.550;12.138;2023-05-16T03:07:33;100185.56;;;15.34;56.47
12182;BME280;6154;51.550;12.138;2023-05-16T03:10:29;100187.97;;;15.48;57.57
12182;BME280;6154;51.550;12.138;2023-05-16T03:16:26;100189.91;;;15.35;57.78
12182;BME280;6154;51.550;12.138;2023-05-16T03:18:55;100201.19;;;15.39;54.51
12182;BME280;6154;51.550;12.138;2023-05-16T03:21:24;100207.94;;;15.20;56.20
12182;BME280;6154;51.550;12.138;2023-05-16T03:23:53;100205.78;;;15.26;55.04
12182;BME280;6154;51.550;12.138;2023-05-16T03:26:22;100218.25;;;15.14;56.53
12182;BME280;6154;51.550;12.138;2023-05-16T03:28:50;100212.22;;;15.34;53.69
12182;BME280;6154;51.550;12.138;2023-05-16T03:31:28;100214.88;;;15.34;53.88
12182;BME280;6154;51.550;12.138;2023-05-16T03:34:16;100220.56;;;15.41;55.11
12182;BME280;6154;51.550;12.138;2023-05-16T03:36:48;100219.50;;;15.43;55.45
12182;BME280;6154;51.550;12.138;2023-05-16T03:39:33;100222.38;;;15.18;55.85
12182;BME280;6154;51.550;12.138;2023-05-16T03:42:09;100217.50;;;15.12;55.74
12182;BME280;6154;51.550;12.138;2023-05-16T03:45:09;100219.47;;;15.21;54.96
12182;BME280;6154;51.550;12.138;2023-05-16T03:47:38;100216.53;;;15.13;55.84
12182;BME280;6154;51.550;12.138;2023-05-16T03:50:08;100215.34;;;15.28;55.81
12182;BME280;6154;51.550;12.138;2023-05-16T03:52:38;100221.78;;;15.37;54.61
12182;BME280;6154;51.550;12.138;2023-05-16T03:55:07;100226.75;;;15.30;55.53
12182;BME280;6154;51.550;12.138;2023-05-16T03:57:37;100236.34;;;15.44;55.41
12182;BME280;6154;51.550;12.138;2023-05-16T04:00:38;100242.16;;;15.49;54.63
12182;BME280;6154;51.550;12.138;2023-05-16T04:03:42;100236.22;;;15.57;54.31
12182;BME280;6154;51.550;12.138;2023-05-16T04:06:38;100248.38;;;15.61;55.25
12182;BME280;6154;51.550;12.138;2023-05-16T04:11:49;100244.97;;;15.81;54.76
12182;BME280;6154;51.550;12.138;2023-05-16T04:14:17;100250.31;;;15.81;55.15
12182;BME280;6154;51.550;12.138;2023-05-16T04:16:45;100255.53;;;15.82;54.02
12182;BME280;6154;51.550;12.138;2023-05-16T04:22:33;100258.56;;;15.89;55.52
12182;BME280;6154;51.550;12.138;2023-05-16T04:25:52;100262.44;;;15.96;54.93
12182;BME280;6154;51.550;12.138;2023-05-16T04:28:22;100268.22;;;16.13;55.26
12182;BME280;6154;51.550;12.138;2023-05-16T04:31:03;100266.91;;;16.07;53.95
12182;BME280;6154;51.550;12.138;2023-05-16T04:36:16;100276.47;;;16.21;54.91
12182;BME280;6154;51.550;12.138;2023-05-16T04:38:44;100279.84;;;16.23;53.74
12182;BME280;6154;51.550;12.138;2023-05-16T04:41:13;100281.81;;;16.21;53.77
12182;BME280;6154;51.550;12.138;2023-05-16T04:43:43;100285.69;;;16.28;53.66
12182;BME280;6154;51.550;12.138;2023-05-16T04:46:11;100291.59;;;16.43;53.50
12182;BME280;6154;51.550;12.138;2023-05-16T04:48:41;100300.44;;;16.43;53.45
12182;BME280;6154;51.550;12.138;2023-05-16T04:51:12;100300.94;;;16.48;53.08
12182;BME280;6154;51.550;12.138;2023-05-16T04:54:31;100307.12;;;16.49;53.41
12182;BME280;6154;51.550;12.138;2023-05-16T04:56:59;100314.87;;;16.52;53.65
12182;BME280;6154;51.550;12.138;2023-05-16T04:59:29;100313.28;;;16.60;52.95
12182;BME280;6154;51.550;12.138;2023-05-16T05:01:58;100315.03;;;16.39;55.64
12182;BME280;6154;51.550;12.138;2023-05-16T05:04:26;100324.28;;;16.46;54.57
12182;BME280;6154;51.550;12.138;2023-05-16T05:06:55;100326.66;;;16.60;53.49
12182;BME280;6154;51.550;12.138;2023-05-16T05:09:23;100332.50;;;16.43;55.41
12182;BME280;6154;51.550;12.138;2023-05-16T05:11:52;100332.47;;;16.65;53.52
12182;BME280;6154;51.550;12.138;2023-05-16T05:14:20;100336.97;;;16.76;53.09
12182;BME280;6154;51.550;12.138;2023-05-16T05:16:49;100329.81;;;16.77;53.35
12182;BME280;6154;51.550;12.138;2023-05-16T05:19:18;100337.34;;;16.60;54.64
12182;BME280;6154;51.550;12.138;2023-05-16T05:21:46;100340.12;;;16.70;53.91
12182;BME280;6154;51.550;12.138;2023-05-16T05:24:14;100339.78;;;16.75;53.58
12182;BME280;6154;51.550;12.138;2023-05-16T05:26:45;100347.41;;;16.79;53.83
12182;BME280;6154;51.550;12.138;2023-05-16T05:29:13;100349.31;;;16.88;53.35
12182;BME280;6154;51.550;12.138;2023-05-16T05:31:42;100354.50;;;17.01;53.49
12182;BME280;6154;51.550;12.138;2023-05-16T05:34:12;100360.81;;;17.00;53.43
12182;BME280;6154;51.550;12.138;2023-05-16T05:36:40;100365.47;;;16.98;54.46
12182;BME280;6154;51.550;12.138;2023-05-16T05:39:30;100357.16;;;17.01;53.57
12182;BME280;6154;51.550;12.138;2023-05-16T05:41:59;100355.28;;;17.24;53.17
12182;BME280;6154;51.550;12.138;2023-05-16T05:44:29;100348.13;;;16.81;54.84
12182;BME280;6154;51.550;12.138;2023-05-16T05:46:58;100353.59;;;17.12;53.72
12182;BME280;6154;51.550;12.138;2023-05-16T05:49:27;100361.25;;;17.16;53.16
12182;BME280;6154;51.550;12.138;2023-05-16T05:51:56;100363.50;;;17.00;54.36
12182;BME280;6154;51.550;12.138;2023-05-16T05:54:25;100370.88;;;17.40;52.30
12182;BME280;6154;51.550;12.138;2023-05-16T05:56:53;100378.09;;;17.28;53.14
12182;BME280;6154;51.550;12.138;2023-05-16T05:59:21;100379.34;;;17.24;53.37
12182;BME280;6154;51.550;12.138;2023-05-16T06:01:49;100377.34;;;17.05;53.96
12182;BME280;6154;51.550;12.138;2023-05-16T06:04:19;100377.50;;;16.92;54.52
12182;BME280;6154;51.550;12.138;2023-05-16T06:06:48;100379.13;;;17.16;53.35
12182;BME280;6154;51.550;12.138;2023-05-16T06:09:16;100374.16;;;17.11;53.83
12182;BME280;6154;51.550;12.138;2023-05-16T06:11:45;100375.56;;;17.27;53.17
12182;BME280;6154;51.550;12.138;2023-05-16T06:14:14;100379.87;;;17.39;52.50
12182;BME280;6154;51.550;12.138;2023-05-16T06:16:42;100384.97;;;17.10;54.08
12182;BME280;6154;51.550;12.138;2023-05-16T06:19:10;100389.22;;;17.44;52.90
12182;BME280;6154;51.550;12.138;2023-05-16T06:21:42;100388.41;;;17.33;53.40
12182;BME280;6154;51.550;12.138;2023-05-16T06:24:11;100397.13;;;17.46;52.70
12182;BME280;6154;51.550;12.138;2023-05-16T06:26:40;100394.16;;;17.28;53.38
12182;BME280;6154;51.550;12.138;2023-05-16T06:29:08;100395.63;;;17.21;53.87
12182;BME280;6154;51.550;12.138;2023-05-16T06:31:36;100391.12;;;17.21;53.64
12182;BME280;6154;51.550;12.138;2023-05-16T06:34:04;100396.78;;;17.07;54.68
12182;BME280;6154;51.550;12.138;2023-05-16T06:36:32;100397.84;;;17.16;54.29
12182;BME280;6154;51.550;12.138;2023-05-16T06:39:01;100402.66;;;17.22;53.86
12182;BME280;6154;51.550;12.138;2023-05-16T06:41:32;100404.53;;;17.10;54.64
12182;BME280;6154;51.550;12.138;2023-05-16T06:44:01;100409.63;;;17.24;54.29
12182;BME280;6154;51.550;12.138;2023-05-16T06:46:32;100411.03;;;17.29;53.95
12182;BME280;6154;51.550;12.138;2023-05-16T06:49:01;100409.03;;;17.42;53.37
12182;BME280;6154;51.550;12.138;2023-05-16T06:51:29;100407.13;;;17.65;52.98
12182;BME280;6154;51.550;12.138;2023-05-16T06:53:58;100415.00;;;17.66;52.90
12182;BME280;6154;51.550;12.138;2023-05-16T06:56:29;100419.94;;;17.50;53.79
12182;BME280;6154;51.550;12.138;2023-05-16T06:59:00;100419.00;;;17.72;52.96
12182;BME280;6154;51.550;12.138;2023-05-16T07:01:28;100416.37;;;17.61;53.71
12182;BME280;6154;51.550;12.138;2023-05-16T07:03:57;100417.66;;;17.77;52.61
12182;BME280;6154;51.550;12.138;2023-05-16T07:06:28;100425.19;;;17.93;52.40
12182;BME280;6154;51.550;12.138;2023-05-16T07:08:56;100424.44;;;17.81;52.74
12182;BME280;6154;51.550;12.138;2023-05-16T07:11:24;100422.84;;;18.00;52.71
12182;BME280;6154;51.550;12.138;2023-05-16T07:13:53;100428.88;;;17.92;52.75
12182;BME280;6154;51.550;12.138;2023-05-16T07:16:25;100415.72;;;18.10;52.37
12182;BME280;6154;51.550;12.138;2023-05-16T07:18:54;100421.28;;;18.18;52.48
12182;BME280;6154;51.550;12.138;2023-05-16T07:21:23;100419.03;;;18.23;52.24
12182;BME280;6154;51.550;12.138;2023-05-16T07:23:53;100425.25;;;18.24;52.69
12182;BME280;6154;51.550;12.138;2023-05-16T07:26:22;100425.28;;;18.33;52.38
12182;BME280;6154;51.550;12.138;2023-05-16T07:28:50;100421.13;;;18.50;52.08
12182;BME280;6154;51.550;12.138;2023-05-16T07:31:19;100426.53;;;18.29;53.08
12182;BME280;6154;51.550;12.138;2023-05-16T07:33:49;100424.13;;;18.26;53.23
12182;BME280;6154;51.550;12.138;2023-05-16T07:36:17;100423.66;;;18.52;52.52
12182;BME280;6154;51.550;12.138;2023-05-16T07:38:46;100428.78;;;18.55;53.00
12182;BME280;6154;51.550;12.138;2023-05-16T07:41:35;100432.59;;;18.62;52.82
12182;BME280;6154;51.550;12.138;2023-05-16T07:44:03;100432.31;;;18.95;52.08
12182;BME280;6154;51.550;12.138;2023-05-16T07:46:31;100442.78;;;19.08;51.59
12182;BME280;6154;51.550;12.138;2023-05-16T07:49:01;100448.62;;;18.83;52.04
12182;BME280;6154;51.550;12.138;2023-05-16T07:51:31;100447.53;;;18.55;52.58
12182;BME280;6154;51.550;12.138;2023-05-16T07:54:10;100450.03;;;18.47;52.59
12182;BME280;6154;51.550;12.138;2023-05-16T08:00:30;100457.19;;;18.36;53.15
12182;BME280;6154;51.550;12.138;2023-05-16T08:02:59;100462.72;;;18.14;53.50
12182;BME280;6154;51.550;12.138;2023-05-16T08:05:29;100458.25;;;18.24;53.04
12182;BME280;6154;51.550;12.138;2023-05-16T08:07:58;100467.84;;;18.27;52.64
12182;BME280;6154;51.550;12.138;2023-05-16T08:10:28;100461.38;;;18.60;51.88
12182;BME280;6154;51.550;12.138;2023-05-16T08:13:04;100458.78;;;18.49;52.53
12182;BME280;6154;51.550;12.138;2023-05-16T08:15:35;100461.47;;;18.49;53.06
12182;BME280;6154;51.550;12.138;2023-05-16T08:18:11;100457.09;;;18.78;52.26
12182;BME280;6154;51.550;12.138;2023-05-16T08:20:45;100465.31;;;18.86;52.51
12182;BME280;6154;51.550;12.138;2023-05-16T08:24:12;100471.84;;;19.13;52.10
12182;BME280;6154;51.550;12.138;2023-05-16T08:26:45;100470.34;;;19.39;51.56
12182;BME280;6154;51.550;12.138;2023-05-16T08:29:13;100462.84;;;19.33;51.37
12182;BME280;6154;51.550;12.138;2023-05-16T08:31:41;100469.06;;;19.43;51.17
12182;BME280;6154;51.550;12.138;2023-05-16T08:34:10;100468.09;;;19.44;51.21
12182;BME280;6154;51.550;12.138;2023-05-16T08:36:42;100471.25;;;19.69;50.74
12182;BME280;6154;51.550;12.138;2023-05-16T08:39:11;100470.34;;;19.39;51.07
12182;BME280;6154;51.550;12.138;2023-05-16T08:41:41;100473.78;;;19.61;50.68
12182;BME280;6154;51.550;12.138;2023-05-16T08:44:10;100468.66;;;19.38;50.71
12182;BME280;6154;51.550;12.138;2023-05-16T08:46:40;100475.28;;;19.53;50.68
12182;BME280;6154;51.550;12.138;2023-05-16T08:49:09;100471.66;;;19.55;50.44
12182;BME280;6154;51.550;12.138;2023-05-16T08:51:45;100466.72;;;19.69;50.35
12182;BME280;6154;51.550;12.138;2023-05-16T08:54:15;100469.06;;;19.53;50.47
12182;BME280;6154;51.550;12.138;2023-05-16T08:56:49;100461.00;;;19.14;50.55
12182;BME280;6154;51.550;12.138;2023-05-16T08:59:17;100455.84;;;19.61;50.13
12182;BME280;6154;51.550;12.138;2023-05-16T09:01:47;100454.69;;;19.64;49.92
12182;BME280;6154;51.550;12.138;2023-05-16T09:04:32;100450.31;;;19.63;49.51
12182;BME280;6154;51.550;12.138;2023-05-16T09:07:02;100444.66;;;19.37;50.08
12182;BME280;6154;51.550;12.138;2023-05-16T09:09:30;100441.25;;;19.44;49.59
12182;BME280;6154;51.550;12.138;2023-05-16T09:11:59;100445.62;;;19.45;49.75
12182;BME280;6154;51.550;12.138;2023-05-16T09:14:28;100438.44;;;19.36;50.04
12182;BME280;6154;51.550;12.138;2023-05-16T09:17:03;100431.47;;;19.05;49.98
12182;BME280;6154;51.550;12.138;2023-05-16T09:19:36;100442.97;;;18.76;49.83
12182;BME280;6154;51.550;12.138;2023-05-16T09:22:08;100446.72;;;19.14;49.58
12182;BME280;6154;51.550;12.138;2023-05-16T09:24:37;100444.19;;;19.22;49.66
12182;BME280;6154;51.550;12.138;2023-05-16T09:27:07;100453.25;;;19.40;49.39
12182;BME280;6154;51.550;12.138;2023-05-16T09:29:39;100446.22;;;19.59;49.24
12182;BME280;6154;51.550;12.138;2023-05-16T09:32:12;100452.28;;;19.70;49.29
12182;BME280;6154;51.550;12.138;2023-05-16T09:34:45;100462.31;;;19.88;49.21
12182;BME280;6154;51.550;12.138;2023-05-16T09:37:16;100467.28;;;19.73;49.14
12182;BME280;6154;51.550;12.138;2023-05-16T09:39:48;100467.41;;;19.81;48.71
12182;BME280;6154;51.550;12.138;2023-05-16T09:42:17;100470.38;;;19.68;48.65
12182;BME280;6154;51.550;12.138;2023-05-16T09:44:47;100493.12;;;19.74;49.11
12182;BME280;6154;51.550;12.138;2023-05-16T09:47:17;100489.59;;;19.83;48.86
12182;BME280;6154;51.550;12.138;2023-05-16T09:49:50;100496.50;;;20.15;48.68
12182;BME280;6154;51.550;12.138;2023-05-16T09:52:20;100495.38;;;20.17;48.65
12182;BME280;6154;51.550;12.138;2023-05-16T09:54:48;100494.09;;;20.12;48.61
12182;BME280;6154;51.550;12.138;2023-05-16T09:57:17;100500.16;;;20.14;48.13
12182;BME280;6154;51.550;12.138;2023-05-16T09:59:46;100509.25;;;19.84;48.35
12182;BME280;6154;51.550;12.138;2023-05-16T10:02:15;100508.28;;;19.56;48.44
12182;BME280;6154;51.550;12.138;2023-05-16T10:04:43;100502.47;;;19.89;48.67
12182;BME280;6154;51.550;12.138;2023-05-16T10:07:12;100504.69;;;20.03;48.82
12182;BME280;6154;51.550;12.138;2023-05-16T10:09:42;100506.34;;;20.43;48.35
12182;BME280;6154;51.550;12.138;2023-05-16T10:12:12;100514.53;;;20.42;47.63
12182;BME280;6154;51.550;12.138;2023-05-16T10:15:08;100521.00;;;20.68;48.03
12182;BME280;6154;51.550;12.138;2023-05-16T10:17:39;100528.37;;;20.66;47.91
12182;BME280;6154;51.550;12.138;2023-05-16T10:20:11;100532.53;;;20.88;47.56
12182;BME280;6154;51.550;12.138;2023-05-16T10:22:42;100535.72;;;21.01;47.30
12182;BME280;6154;51.550;12.138;2023-05-16T10:25:39;100540.53;;;21.07;47.04
12182;BME280;6154;51.550;12.138;2023-05-16T10:28:11;100549.03;;;20.75;45.71
12182;BME280;6154;51.550;12.138;2023-05-16T10:30:40;100542.13;;;20.34;46.50
12182;BME280;6154;51.550;12.138;2023-05-16T10:33:11;100536.94;;;20.23;47.02
12182;BME280;6154;51.550;12.138;2023-05-16T10:35:40;100527.78;;;19.87;47.80
12182;BME280;6154;51.550;12.138;2023-05-16T10:38:10;100527.63;;;19.98;47.67
12182;BME280;6154;51.550;12.138;2023-05-16T10:40:41;100525.66;;;20.00;47.37
12182;BME280;6154;51.550;12.138;2023-05-16T10:43:10;100533.25;;;20.43;47.37
12182;BME280;6154;51.550;12.138;2023-05-16T10:45:41;100530.28;;;20.36;46.32
12182;BME280;6154;51.550;12.138;2023-05-16T10:48:11;100527.00;;;20.52;46.05
12182;BME280;6154;51.550;12.138;2023-05-16T10:50:42;100524.66;;;20.77;45.77
12182;BME280;6154;51.550;12.138;2023-05-16T10:53:16;100526.28;;;20.97;46.26
12182;BME280;6154;51.550;12.138;2023-05-16T10:56:05;100534.78;;;20.92;45.65
12182;BME280;6154;51.550;12.138;2023-05-16T10:58:46;100527.66;;;21.01;43.14
12182;BME280;6154;51.550;12.138;2023-05-16T11:01:16;100530.34;;;21.74;44.24
12182;BME280;6154;51.550;12.138;2023-05-16T11:04:05;100534.63;;;22.02;44.93
12182;BME280;6154;51.550;12.138;2023-05-16T11:06:48;100550.22;;;22.08;42.63
12182;BME280;6154;51.550;12.138;2023-05-16T11:09:24;100554.22;;;21.87;42.90
12182;BME280;6154;51.550;12.138;2023-05-16T11:12:00;100547.66;;;21.89;43.20
12182;BME280;6154;51.550;12.138;2023-05-16T11:14:35;100546.25;;;22.03;42.93
12182;BME280;6154;51.550;12.138;2023-05-16T11:17:09;100543.88;;;22.00;42.40
12182;BME280;6154;51.550;12.138;2023-05-16T11:19:41;100544.34;;;22.31;43.54
12182;BME280;6154;51.550;12.138;2023-05-16T11:22:20;100540.97;;;22.55;42.80
12182;BME280;6154;51.550;12.138;2023-05-16T11:24:51;100536.13;;;23.27;41.74
12182;BME280;6154;51.550;12.138;2023-05-16T11:27:26;100533.19;;;23.62;42.63
12182;BME280;6154;51.550;12.138;2023-05-16T11:29:58;100531.59;;;23.43;41.54
12182;BME280;6154;51.550;12.138;2023-05-16T11:32:32;100528.56;;;23.38;42.76
12182;BME280;6154;51.550;12.138;2023-05-16T11:35:01;100528.87;;;23.27;42.04
12182;BME280;6154;51.550;12.138;2023-05-16T11:37:30;100526.44;;;23.08;41.93
12182;BME280;6154;51.550;12.138;2023-05-16T11:39:59;100523.91;;;23.06;43.00
12182;BME280;6154;51.550;12.138;2023-05-16T11:42:30;100517.97;;;23.03;42.60
12182;BME280;6154;51.550;12.138;2023-05-16T11:45:04;100523.12;;;22.88;42.39
12182;BME280;6154;51.550;12.138;2023-05-16T11:47:35;100531.84;;;22.82;41.44
12182;BME280;6154;51.550;12.138;2023-05-16T11:50:06;100519.13;;;22.74;40.83
12182;BME280;6154;51.550;12.138;2023-05-16T11:52:38;100523.53;;;23.01;41.52
12182;BME280;6154;51.550;12.138;2023-05-16T11:55:08;100525.75;;;23.14;41.36
12182;BME280;6154;51.550;12.138;2023-05-16T11:57:42;100528.13;;;23.09;41.05
12182;BME280;6154;51.550;12.138;2023-05-16T12:00:14;100529.72;;;22.93;40.08
12182;BME280;6154;51.550;12.138;2023-05-16T12:02:49;100538.84;;;22.92;37.92
12182;BME280;6154;51.550;12.138;2023-05-16T12:05:19;100535.50;;;23.49;41.50
12182;BME280;6154;51.550;12.138;2023-05-16T12:07:53;100532.19;;;23.63;40.71
12182;BME280;6154;51.550;12.138;2023-05-16T12:10:22;100528.66;;;23.20;39.96
12182;BME280;6154;51.550;12.138;2023-05-16T12:12:54;100533.53;;;23.09;40.59
12182;BME280;6154;51.550;12.138;2023-05-16T12:15:22;100549.94;;;23.23;40.37
12182;BME280;6154;51.550;12.138;2023-05-16T12:17:51;100551.91;;;23.56;40.30
12182;BME280;6154;51.550;12.138;2023-05-16T12:20:19;100551.81;;;23.65;40.70
12182;BME280;6154;51.550;12.138;2023-05-16T12:22:47;100541.69;;;23.25;37.79
12182;BME280;6154;51.550;12.138;2023-05-16T12:25:26;100554.41;;;23.49;38.91
12182;BME280;6154;51.550;12.138;2023-05-16T12:27:58;100538.16;;;23.33;35.98
12182;BME280;6154;51.550;12.138;2023-05-16T12:30:28;100539.63;;;23.19;37.45
12182;BME280;6154;51.550;12.138;2023-05-16T12:32:58;100532.13;;;23.05;38.71
12182;BME280;6154;51.550;12.138;2023-05-16T12:35:33;100535.84;;;23.54;38.85
12182;BME280;6154;51.550;12.138;2023-05-16T12:38:03;100527.00;;;23.28;38.62
12182;BME280;6154;51.550;12.138;2023-05-16T12:40:31;100524.31;;;22.93;37.80
12182;BME280;6154;51.550;12.138;2023-05-16T12:43:01;100530.41;;;22.87;38.31
12182;BME280;6154;51.550;12.138;2023-05-16T12:45:32;100531.09;;;22.72;38.54
12182;BME280;6154;51.550;12.138;2023-05-16T12:48:05;100532.69;;;23.08;38.70
12182;BME280;6154;51.550;12.138;2023-05-16T12:50:33;100536.28;;;23.33;38.31
12182;BME280;6154;51.550;12.138;2023-05-16T12:53:09;100536.59;;;23.22;37.40
12182;BME280;6154;51.550;12.138;2023-05-16T12:55:38;100533.91;;;23.22;36.72
12182;BME280;6154;51.550;12.138;2023-05-16T12:58:09;100531.38;;;23.79;37.50
12182;BME280;6154;51.550;12.138;2023-05-16T13:00:38;100535.44;;;24.16;37.82
12182;BME280;6154;51.550;12.138;2023-05-16T13:03:07;100546.94;;;24.09;36.22
12182;BME280;6154;51.550;12.138;2023-05-16T13:05:35;100539.63;;;23.69;36.31
12182;BME280;6154;51.550;12.138;2023-05-16T13:08:03;100540.72;;;23.42;36.20
12182;BME280;6154;51.550;12.138;2023-05-16T13:10:37;100543.72;;;23.31;36.03
12182;BME280;6154;51.550;12.138;2023-05-16T13:13:06;100528.63;;;23.63;37.87
12182;BME280;6154;51.550;12.138;2023-05-16T13:15:36;100533.56;;;23.75;38.07
12182;BME280;6154;51.550;12.138;2023-05-16T13:18:04;100531.69;;;23.60;37.71
12182;BME280;6154;51.550;12.138;2023-05-16T13:20:33;100535.78;;;23.88;38.02
12182;BME280;6154;51.550;12.138;2023-05-16T13:23:01;100541.50;;;23.93;37.95
12182;BME280;6154;51.550;12.138;2023-05-16T13:25:35;100546.56;;;24.04;37.51
12182;BME280;6154;51.550;12.138;2023-05-16T13:28:03;100544.69;;;24.70;37.48
12182;BME280;6154;51.550;12.138;2023-05-16T13:30:32;100548.75;;;25.21;36.88
12182;BME280;6154;51.550;12.138;2023-05-16T13:33:02;100552.47;;;25.29;36.81
12182;BME280;6154;51.550;12.138;2023-05-16T13:35:31;100565.66;;;25.63;36.43
12182;BME280;6154;51.550;12.138;2023-05-16T13:37:59;100556.72;;;25.85;35.58
12182;BME280;6154;51.550;12.138;2023-05-16T13:40:27;100558.28;;;25.17;33.86
12182;BME280;6154;51.550;12.138;2023-05-16T13:42:56;100572.16;;;25.14;36.42
12182;BME280;6154;51.550;12.138;2023-05-16T13:45:24;100569.88;;;24.79;36.24
12182;BME280;6154;51.550;12.138;2023-05-16T13:47:53;100569.25;;;24.44;35.67
12182;BME280;6154;51.550;12.138;2023-05-16T13:50:24;100569.78;;;24.56;36.17
12182;BME280;6154;51.550;12.138;2023-05-16T13:53:13;100569.88;;;24.87;35.86
12182;BME280;6154;51.550;12.138;2023-05-16T13:55:41;100572.16;;;25.14;33.55
12182;BME280;6154;51.550;12.138;2023-05-16T13:58:09;100573.28;;;25.36;35.48
12182;BME280;6154;51.550;12.138;2023-05-16T14:00:38;100573.59;;;25.33;33.30
12182;BME280;6154;51.550;12.138;2023-05-16T14:03:12;100567.03;;;25.90;34.93
12182;BME280;6154;51.550;12.138;2023-05-16T14:05:41;100574.59;;;25.40;34.73
12182;BME280;6154;51.550;12.138;2023-05-16T14:08:09;100575.25;;;25.03;33.97
12182;BME280;6154;51.550;12.138;2023-05-16T14:10:38;100567.84;;;24.81;33.57
12182;BME280;6154;51.550;12.138;2023-05-16T14:13:06;100567.69;;;24.74;34.73
12182;BME280;6154;51.550;12.138;2023-05-16T14:15:34;100577.03;;;24.55;34.41
12182;BME280;6154;51.550;12.138;2023-05-16T14:18:03;100581.09;;;24.35;34.45
12182;BME280;6154;51.550;12.138;2023-05-16T14:20:38;100581.72;;;23.80;34.90
12182;BME280;6154;51.550;12.138;2023-05-16T14:23:08;100576.34;;;22.96;32.48
12182;BME280;6154;51.550;12.138;2023-05-16T14:25:37;100590.28;;;23.17;33.74
12182;BME280;6154;51.550;12.138;2023-05-16T14:28:05;100581.56;;;23.98;35.49
12182;BME280;6154;51.550;12.138;2023-05-16T14:30:34;100573.31;;;24.07;34.35
12182;BME280;6154;51.550;12.138;2023-05-16T14:33:04;100566.22;;;24.55;34.42
12182;BME280;6154;51.550;12.138;2023-05-16T14:35:39;100566.16;;;24.80;34.01
12182;BME280;6154;51.550;12.138;2023-05-16T14:38:08;100575.03;;;25.13;34.13
12182;BME280;6154;51.550;12.138;2023-05-16T14:40:39;100574.03;;;25.45;33.07
12182;BME280;6154;51.550;12.138;2023-05-16T14:43:08;100563.72;;;25.48;32.49
12182;BME280;6154;51.550;12.138;2023-05-16T14:45:38;100575.00;;;25.60;32.89
12182;BME280;6154;51.550;12.138;2023-05-16T14:48:16;100568.09;;;25.49;32.56
12182;BME280;6154;51.550;12.138;2023-05-16T14:50:44;100561.22;;;25.39;33.84
12182;BME280;6154;51.550;12.138;2023-05-16T14:53:14;100564.12;;;25.37;33.61
12182;BME280;6154;51.550;12.138;2023-05-16T14:55:44;100563.06;;;26.00;33.55
12182;BME280;6154;51.550;12.138;2023-05-16T14:58:12;100565.03;;;26.67;32.93